sensor_id;sensor_type;location;lat;lon;timestamp;temperature;humidity
7155;DHT22;3619;53.784;10.440;2024-02-14T00:00:52;5.40;99.90
7155;DHT22;3619;53.784;10.440;2024-02-14T00:03:21;5.30;99.90
7155;DHT22;3619;53.784;10.440;2024-02-14T00:05:48;5.40;99.90
7155;DHT22;3619;53.784;10.440;2024-02-14T00:08:19;5.30;99.90
7155;DHT22;3619;53.784;10.440;2024-02-14T00:10:47;5.30;99.90
7155;DHT22;3619;53.784;10.440;2024-02-14T00:13:14;5.30;99.90
7155;DHT22;3619;53.784;10.440;2024-02-14T00:15:43;5.30;99.90
7155;DHT22;3619;53.784;10.440;2024-02-14T00:18:10;5.20;99.90
7155;DHT22;3619;53.784;10.440;2024-02-14T00:20:37;5.20;99.90
7155;DHT22;3619;53.784;10.440;2024-02-14T00:23:04;5.20;99.90
7155;DHT22;3619;53.784;10.440;2024-02-14T00:25:33;5.20;99.90
7155;DHT22;3619;53.784;10.440;2024-02-14T00:27:59;5.10;99.90
7155;DHT22;3619;53.784;10.440;2024-02-14T00:30:26;5.10;99.90
7155;DHT22;3619;53.784;10.440;2024-02-14T00:32:53;5.10;99.90
7155;DHT22;3619;53.784;10.440;2024-02-14T00:35:20;5.10;99.90
7155;DHT22;3619;53.784;10.440;2024-02-14T00:37:47;5.10;99.90
7155;DHT22;3619;53.784;10.440;2024-02-14T00:40:14;5.00;99.90
7155;DHT22;3619;53.784;10.440;2024-02-14T00:42:43;5.10;99.90
7155;DHT22;3619;53.784;10.440;2024-02-14T00:45:10;5.10;99.90
7155;DHT22;3619;53.784;10.440;2024-02-14T00:47:36;5.10;99.90
7155;DHT22;3619;53.784;10.440;2024-02-14T00:50:04;5.10;99.90
7155;DHT22;3619;53.784;10.440;2024-02-14T00:52:31;5.10;99.90
7155;DHT22;3619;53.784;10.440;2024-02-14T00:54:58;5.00;99.90
7155;DHT22;3619;53.784;10.440;2024-02-14T00:57:28;5.00;99.90
7155;DHT22;3619;53.784;10.440;2024-02-14T00:59:56;5.00;99.90
7155;DHT22;3619;53.784;10.440;2024-02-14T01:02:23;5.00;99.90
7155;DHT22;3619;53.784;10.440;2024-02-14T01:04:51;5.00;99.90
7155;DHT22;3619;53.784;10.440;2024-02-14T01:07:18;5.00;99.90
7155;DHT22;3619;53.784;10.440;2024-02-14T01:09:45;5.00;99.90
7155;DHT22;3619;53.784;10.440;2024-02-14T01:12:11;5.00;99.90
7155;DHT22;3619;53.784;10.440;2024-02-14T01:14:38;5.00;99.90
7155;DHT22;3619;53.784;10.440;2024-02-14T01:17:06;5.00;99.90
7155;DHT22;3619;53.784;10.440;2024-02-14T01:19:33;5.00;99.90
7155;DHT22;3619;53.784;10.440;2024-02-14T01:22:00;5.00;99.90
7155;DHT22;3619;53.784;10.440;2024-02-14T01:24:28;5.00;99.90
7155;DHT22;3619;53.784;10.440;2024-02-14T01:26:55;5.00;99.90
7155;DHT22;3619;53.784;10.440;2024-02-14T01:29:22;5.00;99.90
7155;DHT22;3619;53.784;10.440;2024-02-14T01:31:49;5.10;99.90
7155;DHT22;3619;53.784;10.440;2024-02-14T01:34:17;5.00;99.90
7155;DHT22;3619;53.784;10.440;2024-02-14T01:36:45;5.00;99.90
7155;DHT22;3619;53.784;10.440;2024-02-14T01:39:12;5.00;99.90
7155;DHT22;3619;53.784;10.440;2024-02-14T01:41:43;5.00;99.90
7155;DHT22;3619;53.784;10.440;2024-02-14T01:44:11;5.00;99.90
7155;DHT22;3619;53.784;10.440;2024-02-14T01:46:37;5.00;99.90
7155;DHT22;3619;53.784;10.440;2024-02-14T01:49:04;5.10;99.90
7155;DHT22;3619;53.784;10.440;2024-02-14T01:51:32;5.00;99.90
7155;DHT22;3619;53.784;10.440;2024-02-14T01:54:00;5.10;99.90
7155;DHT22;3619;53.784;10.440;2024-02-14T01:56:26;5.10;99.90
7155;DHT22;3619;53.784;10.440;2024-02-14T01:58:53;5.10;99.90
7155;DHT22;3619;53.784;10.440;2024-02-14T02:01:20;5.10;99.90
7155;DHT22;3619;53.784;10.440;2024-02-14T02:03:49;5.10;99.90
7155;DHT22;3619;53.784;10.440;2024-02-14T02:06:15;5.10;99.90
7155;DHT22;3619;53.784;10.440;2024-02-14T02:08:44;5.10;99.90
7155;DHT22;3619;53.784;10.440;2024-02-14T02:11:12;5.10;99.90
7155;DHT22;3619;53.784;10.440;2024-02-14T02:13:40;5.10;99.90
7155;DHT22;3619;53.784;10.440;2024-02-14T02:16:06;5.10;99.90
7155;DHT22;3619;53.784;10.440;2024-02-14T02:18:33;5.10;99.90
7155;DHT22;3619;53.784;10.440;2024-02-14T02:21:00;5.10;99.90
7155;DHT22;3619;53.784;10.440;2024-02-14T02:23:33;5.10;99.90
7155;DHT22;3619;53.784;10.440;2024-02-14T02:26:00;5.10;99.90
7155;DHT22;3619;53.784;10.440;2024-02-14T02:28:27;5.10;99.90
7155;DHT22;3619;53.784;10.440;2024-02-14T02:30:55;5.10;99.90
7155;DHT22;3619;53.784;10.440;2024-02-14T02:33:21;5.10;99.90
7155;DHT22;3619;53.784;10.440;2024-02-14T02:35:48;5.10;99.90
7155;DHT22;3619;53.784;10.440;2024-02-14T02:38:15;5.10;99.90
7155;DHT22;3619;53.784;10.440;2024-02-14T02:40:43;5.00;99.90
7155;DHT22;3619;53.784;10.440;2024-02-14T02:43:10;5.00;99.90
7155;DHT22;3619;53.784;10.440;2024-02-14T02:45:37;5.10;99.90
7155;DHT22;3619;53.784;10.440;2024-02-14T02:48:04;5.00;99.90
7155;DHT22;3619;53.784;10.440;2024-02-14T02:50:31;5.00;99.90
7155;DHT22;3619;53.784;10.440;2024-02-14T02:52:58;5.00;99.90
7155;DHT22;3619;53.784;10.440;2024-02-14T02:55:24;5.00;99.90
7155;DHT22;3619;53.784;10.440;2024-02-14T02:57:53;5.00;99.90
7155;DHT22;3619;53.784;10.440;2024-02-14T03:00:21;5.00;99.90
7155;DHT22;3619;53.784;10.440;2024-02-14T03:02:47;5.00;99.90
7155;DHT22;3619;53.784;10.440;2024-02-14T03:05:14;5.00;99.90
7155;DHT22;3619;53.784;10.440;2024-02-14T03:07:44;5.00;99.90
7155;DHT22;3619;53.784;10.440;2024-02-14T03:10:13;5.00;99.90
7155;DHT22;3619;53.784;10.440;2024-02-14T03:12:44;4.90;99.90
7155;DHT22;3619;53.784;10.440;2024-02-14T03:15:12;4.90;99.90
7155;DHT22;3619;53.784;10.440;2024-02-14T03:17:39;4.90;99.90
7155;DHT22;3619;53.784;10.440;2024-02-14T03:20:06;5.00;99.90
7155;DHT22;3619;53.784;10.440;2024-02-14T03:22:38;4.90;99.90
7155;DHT22;3619;53.784;10.440;2024-02-14T03:25:08;5.00;99.90
7155;DHT22;3619;53.784;10.440;2024-02-14T03:27:35;5.00;99.90
7155;DHT22;3619;53.784;10.440;2024-02-14T03:30:02;5.00;99.90
7155;DHT22;3619;53.784;10.440;2024-02-14T03:32:31;5.00;99.90
7155;DHT22;3619;53.784;10.440;2024-02-14T03:34:59;5.00;99.90
7155;DHT22;3619;53.784;10.440;2024-02-14T03:37:26;5.00;99.90
7155;DHT22;3619;53.784;10.440;2024-02-14T03:39:53;5.00;99.90
7155;DHT22;3619;53.784;10.440;2024-02-14T03:42:21;5.00;99.90
7155;DHT22;3619;53.784;10.440;2024-02-14T03:44:48;5.00;99.90
7155;DHT22;3619;53.784;10.440;2024-02-14T03:47:15;5.00;99.90
7155;DHT22;3619;53.784;10.440;2024-02-14T03:49:43;5.00;99.90
7155;DHT22;3619;53.784;10.440;2024-02-14T03:52:10;4.90;99.90
7155;DHT22;3619;53.784;10.440;2024-02-14T03:54:38;5.00;99.90
7155;DHT22;3619;53.784;10.440;2024-02-14T03:57:06;4.90;99.90
7155;DHT22;3619;53.784;10.440;2024-02-14T03:59:35;4.90;99.90
7155;DHT22;3619;53.784;10.440;2024-02-14T04:02:02;4.90;99.90
7155;DHT22;3619;53.784;10.440;2024-02-14T04:04:29;4.90;99.90
7155;DHT22;3619;53.784;10.440;2024-02-14T04:06:57;4.90;99.90
7155;DHT22;3619;53.784;10.440;2024-02-14T04:09:26;4.90;99.90
7155;DHT22;3619;53.784;10.440;2024-02-14T04:11:53;4.90;99.90
7155;DHT22;3619;53.784;10.440;2024-02-14T04:14:19;4.90;99.90
7155;DHT22;3619;53.784;10.440;2024-02-14T04:16:46;4.90;99.90
7155;DHT22;3619;53.784;10.440;2024-02-14T04:19:13;4.90;99.90
7155;DHT22;3619;53.784;10.440;2024-02-14T04:21:42;4.90;99.90
7155;DHT22;3619;53.784;10.440;2024-02-14T04:24:10;4.90;99.90
7155;DHT22;3619;53.784;10.440;2024-02-14T04:26:38;4.90;99.90
7155;DHT22;3619;53.784;10.440;2024-02-14T04:29:05;4.90;99.90
7155;DHT22;3619;53.784;10.440;2024-02-14T04:31:32;4.90;99.90
7155;DHT22;3619;53.784;10.440;2024-02-14T04:33:59;4.90;99.90
7155;DHT22;3619;53.784;10.440;2024-02-14T04:36:26;4.90;99.90
7155;DHT22;3619;53.784;10.440;2024-02-14T04:38:56;4.90;99.90
7155;DHT22;3619;53.784;10.440;2024-02-14T04:41:25;4.90;99.90
7155;DHT22;3619;53.784;10.440;2024-02-14T04:43:51;4.90;99.90
7155;DHT22;3619;53.784;10.440;2024-02-14T04:46:18;4.90;99.90
7155;DHT22;3619;53.784;10.440;2024-02-14T04:48:48;4.90;99.90
7155;DHT22;3619;53.784;10.440;2024-02-14T04:51:15;4.80;99.90
7155;DHT22;3619;53.784;10.440;2024-02-14T04:53:42;4.90;99.90
7155;DHT22;3619;53.784;10.440;2024-02-14T04:56:08;4.80;99.90
7155;DHT22;3619;53.784;10.440;2024-02-14T04:58:36;4.80;99.90
7155;DHT22;3619;53.784;10.440;2024-02-14T05:01:03;4.90;99.90
7155;DHT22;3619;53.784;10.440;2024-02-14T05:03:30;4.90;99.90
7155;DHT22;3619;53.784;10.440;2024-02-14T05:05:57;4.90;99.90
7155;DHT22;3619;53.784;10.440;2024-02-14T05:08:24;4.90;99.90
7155;DHT22;3619;53.784;10.440;2024-02-14T05:10:51;4.80;99.90
7155;DHT22;3619;53.784;10.440;2024-02-14T05:13:17;4.90;99.90
7155;DHT22;3619;53.784;10.440;2024-02-14T05:15:45;4.90;99.90
7155;DHT22;3619;53.784;10.440;2024-02-14T05:18:12;4.90;99.90
7155;DHT22;3619;53.784;10.440;2024-02-14T05:20:39;4.90;99.90
7155;DHT22;3619;53.784;10.440;2024-02-14T05:23:05;4.90;99.90
7155;DHT22;3619;53.784;10.440;2024-02-14T05:25:32;4.90;99.90
7155;DHT22;3619;53.784;10.440;2024-02-14T05:27:59;4.90;99.90
7155;DHT22;3619;53.784;10.440;2024-02-14T05:30:26;4.90;99.90
7155;DHT22;3619;53.784;10.440;2024-02-14T05:32:55;4.90;99.90
7155;DHT22;3619;53.784;10.440;2024-02-14T05:35:22;5.00;99.90
7155;DHT22;3619;53.784;10.440;2024-02-14T05:37:49;5.00;99.90
7155;DHT22;3619;53.784;10.440;2024-02-14T05:40:16;4.90;99.90
7155;DHT22;3619;53.784;10.440;2024-02-14T05:42:44;4.90;99.90
7155;DHT22;3619;53.784;10.440;2024-02-14T05:45:11;4.90;99.90
7155;DHT22;3619;53.784;10.440;2024-02-14T05:47:38;5.00;99.90
7155;DHT22;3619;53.784;10.440;2024-02-14T05:50:07;5.00;99.90
7155;DHT22;3619;53.784;10.440;2024-02-14T05:52:36;5.00;99.90
7155;DHT22;3619;53.784;10.440;2024-02-14T05:55:03;5.00;99.90
7155;DHT22;3619;53.784;10.440;2024-02-14T05:57:30;5.00;99.90
7155;DHT22;3619;53.784;10.440;2024-02-14T05:59:57;5.00;99.90
7155;DHT22;3619;53.784;10.440;2024-02-14T06:02:24;5.00;99.90
7155;DHT22;3619;53.784;10.440;2024-02-14T06:04:51;5.00;99.90
7155;DHT22;3619;53.784;10.440;2024-02-14T06:07:19;5.00;99.90
7155;DHT22;3619;53.784;10.440;2024-02-14T06:09:46;5.00;99.90
7155;DHT22;3619;53.784;10.440;2024-02-14T06:12:13;5.00;99.90
7155;DHT22;3619;53.784;10.440;2024-02-14T06:14:40;5.00;99.90
7155;DHT22;3619;53.784;10.440;2024-02-14T06:17:07;5.00;99.90
7155;DHT22;3619;53.784;10.440;2024-02-14T06:19:33;5.10;99.90
7155;DHT22;3619;53.784;10.440;2024-02-14T06:22:01;5.10;99.90
7155;DHT22;3619;53.784;10.440;2024-02-14T06:24:29;5.10;99.90
7155;DHT22;3619;53.784;10.440;2024-02-14T06:26:56;5.10;99.90
7155;DHT22;3619;53.784;10.440;2024-02-14T06:29:24;5.10;99.90
7155;DHT22;3619;53.784;10.440;2024-02-14T06:31:50;5.10;99.90
7155;DHT22;3619;53.784;10.440;2024-02-14T06:34:17;5.10;99.90
7155;DHT22;3619;53.784;10.440;2024-02-14T06:36:45;5.10;99.90
7155;DHT22;3619;53.784;10.440;2024-02-14T06:39:12;5.10;99.90
7155;DHT22;3619;53.784;10.440;2024-02-14T06:41:40;5.20;99.90
7155;DHT22;3619;53.784;10.440;2024-02-14T06:44:09;5.20;99.90
7155;DHT22;3619;53.784;10.440;2024-02-14T06:46:36;5.20;99.90
7155;DHT22;3619;53.784;10.440;2024-02-14T06:49:03;5.20;99.90
7155;DHT22;3619;53.784;10.440;2024-02-14T06:51:30;5.20;99.90
7155;DHT22;3619;53.784;10.440;2024-02-14T06:53:57;5.20;99.90
7155;DHT22;3619;53.784;10.440;2024-02-14T06:56:25;5.30;99.90
7155;DHT22;3619;53.784;10.440;2024-02-14T06:58:53;5.20;99.90
7155;DHT22;3619;53.784;10.440;2024-02-14T07:01:25;5.20;99.90
7155;DHT22;3619;53.784;10.440;2024-02-14T07:03:52;5.30;99.90
7155;DHT22;3619;53.784;10.440;2024-02-14T07:06:19;5.30;99.90
7155;DHT22;3619;53.784;10.440;2024-02-14T07:08:45;5.30;99.90
7155;DHT22;3619;53.784;10.440;2024-02-14T07:11:13;5.40;99.90
7155;DHT22;3619;53.784;10.440;2024-02-14T07:13:40;5.30;99.90
7155;DHT22;3619;53.784;10.440;2024-02-14T07:16:09;5.40;99.90
7155;DHT22;3619;53.784;10.440;2024-02-14T07:18:35;5.40;99.90
7155;DHT22;3619;53.784;10.440;2024-02-14T07:21:02;5.40;99.90
7155;DHT22;3619;53.784;10.440;2024-02-14T07:23:31;5.40;99.90
7155;DHT22;3619;53.784;10.440;2024-02-14T07:25:57;5.50;99.90
7155;DHT22;3619;53.784;10.440;2024-02-14T07:28:25;5.50;99.90
7155;DHT22;3619;53.784;10.440;2024-02-14T07:30:52;5.50;99.90
7155;DHT22;3619;53.784;10.440;2024-02-14T07:33:20;5.60;99.90
7155;DHT22;3619;53.784;10.440;2024-02-14T07:35:47;5.60;99.90
7155;DHT22;3619;53.784;10.440;2024-02-14T07:38:14;5.70;99.90
7155;DHT22;3619;53.784;10.440;2024-02-14T07:40:41;5.70;99.90
7155;DHT22;3619;53.784;10.440;2024-02-14T07:43:08;5.70;99.90
7155;DHT22;3619;53.784;10.440;2024-02-14T07:45:35;5.70;99.90
7155;DHT22;3619;53.784;10.440;2024-02-14T07:48:02;5.80;99.90
7155;DHT22;3619;53.784;10.440;2024-02-14T07:50:30;5.80;99.90
7155;DHT22;3619;53.784;10.440;2024-02-14T07:52:57;5.80;99.90
7155;DHT22;3619;53.784;10.440;2024-02-14T07:55:25;5.80;99.90
7155;DHT22;3619;53.784;10.440;2024-02-14T07:57:52;5.80;99.90
7155;DHT22;3619;53.784;10.440;2024-02-14T08:00:19;5.80;99.90
7155;DHT22;3619;53.784;10.440;2024-02-14T08:02:48;5.80;99.90
7155;DHT22;3619;53.784;10.440;2024-02-14T08:05:14;5.80;99.90
7155;DHT22;3619;53.784;10.440;2024-02-14T08:07:43;5.80;99.90
7155;DHT22;3619;53.784;10.440;2024-02-14T08:10:11;5.90;99.90
7155;DHT22;3619;53.784;10.440;2024-02-14T08:12:38;5.90;99.90
7155;DHT22;3619;53.784;10.440;2024-02-14T08:15:06;5.90;99.90
7155;DHT22;3619;53.784;10.440;2024-02-14T08:17:33;6.00;99.90
7155;DHT22;3619;53.784;10.440;2024-02-14T08:20:00;6.00;99.90
7155;DHT22;3619;53.784;10.440;2024-02-14T08:22:29;6.10;99.90
7155;DHT22;3619;53.784;10.440;2024-02-14T08:24:57;6.20;99.90
7155;DHT22;3619;53.784;10.440;2024-02-14T08:27:24;6.10;99.90
7155;DHT22;3619;53.784;10.440;2024-02-14T08:29:53;6.10;99.90
7155;DHT22;3619;53.784;10.440;2024-02-14T08:32:20;6.20;99.90
7155;DHT22;3619;53.784;10.440;2024-02-14T08:34:48;6.20;99.90
7155;DHT22;3619;53.784;10.440;2024-02-14T08:37:15;6.20;99.90
7155;DHT22;3619;53.784;10.440;2024-02-14T08:39:42;6.20;99.90
7155;DHT22;3619;53.784;10.440;2024-02-14T08:42:10;6.30;99.90
7155;DHT22;3619;53.784;10.440;2024-02-14T08:44:38;6.30;99.90
7155;DHT22;3619;53.784;10.440;2024-02-14T08:47:06;6.30;99.90
7155;DHT22;3619;53.784;10.440;2024-02-14T08:49:32;6.30;99.90
7155;DHT22;3619;53.784;10.440;2024-02-14T08:51:59;6.40;99.90
7155;DHT22;3619;53.784;10.440;2024-02-14T08:54:26;6.40;99.90
7155;DHT22;3619;53.784;10.440;2024-02-14T08:56:53;6.40;99.90
7155;DHT22;3619;53.784;10.440;2024-02-14T08:59:25;6.50;99.90
7155;DHT22;3619;53.784;10.440;2024-02-14T09:01:52;6.50;99.90
7155;DHT22;3619;53.784;10.440;2024-02-14T09:04:20;6.60;99.90
7155;DHT22;3619;53.784;10.440;2024-02-14T09:06:46;6.60;99.90
7155;DHT22;3619;53.784;10.440;2024-02-14T09:09:13;6.60;99.90
7155;DHT22;3619;53.784;10.440;2024-02-14T09:11:41;6.70;99.90
7155;DHT22;3619;53.784;10.440;2024-02-14T09:14:07;6.70;99.90
7155;DHT22;3619;53.784;10.440;2024-02-14T09:16:37;6.80;99.90
7155;DHT22;3619;53.784;10.440;2024-02-14T09:19:04;6.80;99.90
7155;DHT22;3619;53.784;10.440;2024-02-14T09:21:32;6.80;99.90
7155;DHT22;3619;53.784;10.440;2024-02-14T09:24:01;6.80;99.90
7155;DHT22;3619;53.784;10.440;2024-02-14T09:26:28;6.80;99.90
7155;DHT22;3619;53.784;10.440;2024-02-14T09:28:55;6.90;99.90
7155;DHT22;3619;53.784;10.440;2024-02-14T09:31:21;6.90;99.90
7155;DHT22;3619;53.784;10.440;2024-02-14T09:33:50;6.90;99.90
7155;DHT22;3619;53.784;10.440;2024-02-14T09:36:18;6.90;99.90
7155;DHT22;3619;53.784;10.440;2024-02-14T09:38:47;6.90;99.90
7155;DHT22;3619;53.784;10.440;2024-02-14T09:41:15;7.00;99.90
7155;DHT22;3619;53.784;10.440;2024-02-14T09:43:43;7.00;99.90
7155;DHT22;3619;53.784;10.440;2024-02-14T09:46:11;7.00;99.90
7155;DHT22;3619;53.784;10.440;2024-02-14T09:48:38;7.10;99.90
7155;DHT22;3619;53.784;10.440;2024-02-14T09:51:06;7.10;99.90
7155;DHT22;3619;53.784;10.440;2024-02-14T09:53:33;7.20;99.90
7155;DHT22;3619;53.784;10.440;2024-02-14T09:56:00;7.20;99.90
7155;DHT22;3619;53.784;10.440;2024-02-14T09:58:28;7.20;99.90
7155;DHT22;3619;53.784;10.440;2024-02-14T10:00:55;7.30;99.90
7155;DHT22;3619;53.784;10.440;2024-02-14T10:03:23;7.30;99.90
7155;DHT22;3619;53.784;10.440;2024-02-14T10:05:51;7.30;99.90
7155;DHT22;3619;53.784;10.440;2024-02-14T10:08:21;7.30;99.90
7155;DHT22;3619;53.784;10.440;2024-02-14T10:10:49;7.30;99.90
7155;DHT22;3619;53.784;10.440;2024-02-14T10:13:16;7.30;99.90
7155;DHT22;3619;53.784;10.440;2024-02-14T10:15:42;7.40;99.90
7155;DHT22;3619;53.784;10.440;2024-02-14T10:18:09;7.50;99.90
7155;DHT22;3619;53.784;10.440;2024-02-14T10:20:36;7.60;99.90
7155;DHT22;3619;53.784;10.440;2024-02-14T10:23:07;7.60;99.90
7155;DHT22;3619;53.784;10.440;2024-02-14T10:25:35;7.70;99.90
7155;DHT22;3619;53.784;10.440;2024-02-14T10:28:03;7.70;99.90
7155;DHT22;3619;53.784;10.440;2024-02-14T10:30:30;7.80;99.90
7155;DHT22;3619;53.784;10.440;2024-02-14T10:32:58;7.80;99.90
7155;DHT22;3619;53.784;10.440;2024-02-14T10:35:25;7.90;99.90
7155;DHT22;3619;53.784;10.440;2024-02-14T10:37:52;7.90;99.90
7155;DHT22;3619;53.784;10.440;2024-02-14T10:40:26;8.00;99.90
7155;DHT22;3619;53.784;10.440;2024-02-14T10:42:55;8.00;99.90
7155;DHT22;3619;53.784;10.440;2024-02-14T10:45:23;8.10;99.90
7155;DHT22;3619;53.784;10.440;2024-02-14T10:47:50;8.20;99.90
7155;DHT22;3619;53.784;10.440;2024-02-14T10:50:18;8.20;99.90
7155;DHT22;3619;53.784;10.440;2024-02-14T10:52:48;8.30;99.90
7155;DHT22;3619;53.784;10.440;2024-02-14T10:55:15;8.40;99.90
7155;DHT22;3619;53.784;10.440;2024-02-14T10:57:42;8.50;99.90
7155;DHT22;3619;53.784;10.440;2024-02-14T11:00:12;8.50;99.90
7155;DHT22;3619;53.784;10.440;2024-02-14T11:02:41;8.60;99.90
7155;DHT22;3619;53.784;10.440;2024-02-14T11:05:11;8.60;99.90
7155;DHT22;3619;53.784;10.440;2024-02-14T11:07:43;8.70;99.90
7155;DHT22;3619;53.784;10.440;2024-02-14T11:10:12;8.80;99.90
7155;DHT22;3619;53.784;10.440;2024-02-14T11:12:39;8.80;99.90
7155;DHT22;3619;53.784;10.440;2024-02-14T11:15:10;8.90;99.90
7155;DHT22;3619;53.784;10.440;2024-02-14T11:17:38;8.90;99.90
7155;DHT22;3619;53.784;10.440;2024-02-14T11:20:13;8.90;99.90
7155;DHT22;3619;53.784;10.440;2024-02-14T11:22:49;9.00;99.90
7155;DHT22;3619;53.784;10.440;2024-02-14T11:25:16;9.00;99.90
7155;DHT22;3619;53.784;10.440;2024-02-14T11:27:43;9.10;99.90
7155;DHT22;3619;53.784;10.440;2024-02-14T11:30:11;9.10;99.90
7155;DHT22;3619;53.784;10.440;2024-02-14T11:32:41;9.20;99.90
7155;DHT22;3619;53.784;10.440;2024-02-14T11:35:10;9.30;99.90
7155;DHT22;3619;53.784;10.440;2024-02-14T11:37:38;9.30;99.90
7155;DHT22;3619;53.784;10.440;2024-02-14T11:40:05;9.30;99.90
7155;DHT22;3619;53.784;10.440;2024-02-14T11:42:32;9.40;99.90
7155;DHT22;3619;53.784;10.440;2024-02-14T11:45:00;9.30;99.90
7155;DHT22;3619;53.784;10.440;2024-02-14T11:47:27;9.40;99.90
7155;DHT22;3619;53.784;10.440;2024-02-14T11:49:56;9.40;99.90
7155;DHT22;3619;53.784;10.440;2024-02-14T11:52:25;9.30;99.90
7155;DHT22;3619;53.784;10.440;2024-02-14T11:54:53;9.40;99.90
7155;DHT22;3619;53.784;10.440;2024-02-14T11:57:21;9.40;99.90
7155;DHT22;3619;53.784;10.440;2024-02-14T11:59:51;9.40;99.90
7155;DHT22;3619;53.784;10.440;2024-02-14T12:02:19;9.40;99.90
7155;DHT22;3619;53.784;10.440;2024-02-14T12:04:47;9.50;99.90
7155;DHT22;3619;53.784;10.440;2024-02-14T12:07:20;9.50;99.90
7155;DHT22;3619;53.784;10.440;2024-02-14T12:09:47;9.60;99.90
7155;DHT22;3619;53.784;10.440;2024-02-14T12:12:14;9.70;99.90
7155;DHT22;3619;53.784;10.440;2024-02-14T12:14:42;9.60;99.90
7155;DHT22;3619;53.784;10.440;2024-02-14T12:17:10;9.70;99.90
7155;DHT22;3619;53.784;10.440;2024-02-14T12:19:37;9.70;99.90
7155;DHT22;3619;53.784;10.440;2024-02-14T12:22:08;9.70;99.90
7155;DHT22;3619;53.784;10.440;2024-02-14T12:24:38;9.70;99.90
7155;DHT22;3619;53.784;10.440;2024-02-14T12:27:08;9.70;99.90
7155;DHT22;3619;53.784;10.440;2024-02-14T12:29:35;9.80;99.90
7155;DHT22;3619;53.784;10.440;2024-02-14T12:32:04;9.80;99.90
7155;DHT22;3619;53.784;10.440;2024-02-14T12:34:31;9.90;99.90
7155;DHT22;3619;53.784;10.440;2024-02-14T12:36:58;10.00;99.90
7155;DHT22;3619;53.784;10.440;2024-02-14T12:39:26;10.00;99.90
7155;DHT22;3619;53.784;10.440;2024-02-14T12:41:54;10.00;99.90
7155;DHT22;3619;53.784;10.440;2024-02-14T12:44:21;10.00;99.90
7155;DHT22;3619;53.784;10.440;2024-02-14T12:46:49;10.00;99.90
7155;DHT22;3619;53.784;10.440;2024-02-14T12:49:15;10.00;99.90
7155;DHT22;3619;53.784;10.440;2024-02-14T12:51:42;10.00;99.90
7155;DHT22;3619;53.784;10.440;2024-02-14T12:54:09;10.10;99.90
7155;DHT22;3619;53.784;10.440;2024-02-14T12:56:37;10.00;99.90
7155;DHT22;3619;53.784;10.440;2024-02-14T12:59:06;10.00;99.90
7155;DHT22;3619;53.784;10.440;2024-02-14T13:01:35;10.10;99.90
7155;DHT22;3619;53.784;10.440;2024-02-14T13:04:02;10.10;99.90
7155;DHT22;3619;53.784;10.440;2024-02-14T13:06:30;10.10;99.90
7155;DHT22;3619;53.784;10.440;2024-02-14T13:08:57;10.10;99.90
7155;DHT22;3619;53.784;10.440;2024-02-14T13:11:25;10.10;99.90
7155;DHT22;3619;53.784;10.440;2024-02-14T13:13:52;10.10;99.90
7155;DHT22;3619;53.784;10.440;2024-02-14T13:16:21;10.20;99.90
7155;DHT22;3619;53.784;10.440;2024-02-14T13:18:48;10.20;99.90
7155;DHT22;3619;53.784;10.440;2024-02-14T13:21:15;10.30;99.90
7155;DHT22;3619;53.784;10.440;2024-02-14T13:23:42;10.30;99.90
7155;DHT22;3619;53.784;10.440;2024-02-14T13:26:09;10.30;99.90
7155;DHT22;3619;53.784;10.440;2024-02-14T13:28:36;10.40;99.90
7155;DHT22;3619;53.784;10.440;2024-02-14T13:31:02;10.40;99.90
7155;DHT22;3619;53.784;10.440;2024-02-14T13:33:31;10.40;99.90
7155;DHT22;3619;53.784;10.440;2024-02-14T13:35:57;10.40;99.90
7155;DHT22;3619;53.784;10.440;2024-02-14T13:38:24;10.50;99.90
7155;DHT22;3619;53.784;10.440;2024-02-14T13:40:51;10.50;99.90
7155;DHT22;3619;53.784;10.440;2024-02-14T13:43:19;10.60;99.90
7155;DHT22;3619;53.784;10.440;2024-02-14T13:45:46;10.70;99.90
7155;DHT22;3619;53.784;10.440;2024-02-14T13:48:13;10.70;99.90
7155;DHT22;3619;53.784;10.440;2024-02-14T13:50:42;10.80;99.90
7155;DHT22;3619;53.784;10.440;2024-02-14T13:53:09;10.80;99.90
7155;DHT22;3619;53.784;10.440;2024-02-14T13:55:36;10.90;99.90
7155;DHT22;3619;53.784;10.440;2024-02-14T13:58:03;10.90;99.90
7155;DHT22;3619;53.784;10.440;2024-02-14T14:00:30;10.90;99.90
7155;DHT22;3619;53.784;10.440;2024-02-14T14:02:59;10.90;99.90
7155;DHT22;3619;53.784;10.440;2024-02-14T14:05:26;11.00;99.90
7155;DHT22;3619;53.784;10.440;2024-02-14T14:07:54;10.90;99.90
7155;DHT22;3619;53.784;10.440;2024-02-14T14:10:22;10.90;99.90
7155;DHT22;3619;53.784;10.440;2024-02-14T14:12:50;10.90;99.90
7155;DHT22;3619;53.784;10.440;2024-02-14T14:15:17;10.90;99.90
7155;DHT22;3619;53.784;10.440;2024-02-14T14:17:44;10.90;99.90
7155;DHT22;3619;53.784;10.440;2024-02-14T14:20:11;11.00;99.90
7155;DHT22;3619;53.784;10.440;2024-02-14T14:22:38;10.90;99.90
7155;DHT22;3619;53.784;10.440;2024-02-14T14:25:07;11.00;99.90
7155;DHT22;3619;53.784;10.440;2024-02-14T14:27:34;11.00;99.90
7155;DHT22;3619;53.784;10.440;2024-02-14T14:30:01;11.00;99.90
7155;DHT22;3619;53.784;10.440;2024-02-14T14:32:26;11.00;99.90
7155;DHT22;3619;53.784;10.440;2024-02-14T14:34:53;11.00;99.90
7155;DHT22;3619;53.784;10.440;2024-02-14T14:37:20;11.00;99.90
7155;DHT22;3619;53.784;10.440;2024-02-14T14:39:48;11.00;99.90
7155;DHT22;3619;53.784;10.440;2024-02-14T14:42:16;10.90;99.90
7155;DHT22;3619;53.784;10.440;2024-02-14T14:44:43;11.00;99.90
7155;DHT22;3619;53.784;10.440;2024-02-14T14:47:10;11.00;99.90
7155;DHT22;3619;53.784;10.440;2024-02-14T14:49:38;10.90;99.90
7155;DHT22;3619;53.784;10.440;2024-02-14T14:52:08;11.00;99.90
7155;DHT22;3619;53.784;10.440;2024-02-14T14:54:34;10.90;99.90
7155;DHT22;3619;53.784;10.440;2024-02-14T14:57:02;10.90;99.90
7155;DHT22;3619;53.784;10.440;2024-02-14T14:59:36;10.90;99.90
7155;DHT22;3619;53.784;10.440;2024-02-14T15:02:06;10.90;99.90
7155;DHT22;3619;53.784;10.440;2024-02-14T15:04:33;10.90;99.90
7155;DHT22;3619;53.784;10.440;2024-02-14T15:07:02;10.90;99.90
7155;DHT22;3619;53.784;10.440;2024-02-14T15:09:28;10.90;99.90
7155;DHT22;3619;53.784;10.440;2024-02-14T15:11:55;11.00;99.90
7155;DHT22;3619;53.784;10.440;2024-02-14T15:14:23;11.00;99.90
7155;DHT22;3619;53.784;10.440;2024-02-14T15:16:51;10.90;99.90
7155;DHT22;3619;53.784;10.440;2024-02-14T15:19:18;11.00;99.90
7155;DHT22;3619;53.784;10.440;2024-02-14T15:21:45;11.00;99.90
7155;DHT22;3619;53.784;10.440;2024-02-14T15:24:12;11.00;99.90
7155;DHT22;3619;53.784;10.440;2024-02-14T15:26:38;11.00;99.90
7155;DHT22;3619;53.784;10.440;2024-02-14T15:29:15;11.00;99.90
7155;DHT22;3619;53.784;10.440;2024-02-14T15:32:01;11.00;99.90
7155;DHT22;3619;53.784;10.440;2024-02-14T15:34:46;11.00;99.90
7155;DHT22;3619;53.784;10.440;2024-02-14T15:37:12;11.00;99.90
7155;DHT22;3619;53.784;10.440;2024-02-14T15:39:40;11.00;99.90
7155;DHT22;3619;53.784;10.440;2024-02-14T15:42:06;11.00;99.90
7155;DHT22;3619;53.784;10.440;2024-02-14T15:44:35;11.00;99.90
7155;DHT22;3619;53.784;10.440;2024-02-14T15:47:04;11.00;99.90
7155;DHT22;3619;53.784;10.440;2024-02-14T15:49:31;11.00;99.90
7155;DHT22;3619;53.784;10.440;2024-02-14T15:52:01;11.00;99.90
7155;DHT22;3619;53.784;10.440;2024-02-14T15:54:28;11.00;99.90
7155;DHT22;3619;53.784;10.440;2024-02-14T15:56:55;11.00;99.90
7155;DHT22;3619;53.784;10.440;2024-02-14T15:59:22;11.00;99.90